createdAt,value
2017-12-24T00:00:23.616Z,89.48
2017-12-24T00:02:49.383Z,89.14
2017-12-24T00:05:15.142Z,89.42
2017-12-24T00:07:40.911Z,89.41
2017-12-24T00:10:06.669Z,89.84
2017-12-24T00:12:32.436Z,89.91
2017-12-24T00:14:58.196Z,89.50
2017-12-24T00:17:23.984Z,89.73
2017-12-24T00:19:49.744Z,90.03
2017-12-24T00:22:15.923Z,89.95
2017-12-24T00:24:41.683Z,90.52
2017-12-24T00:27:07.423Z,91.29
2017-12-24T00:29:33.184Z,91.62
2017-12-24T00:31:58.944Z,92.47
2017-12-24T00:34:24.702Z,92.67
2017-12-24T00:36:51.056Z,92.84
2017-12-24T00:39:16.825Z,93.22
2017-12-24T00:41:42.583Z,93.46
2017-12-24T00:44:08.351Z,93.61
2017-12-24T00:46:34.104Z,93.65
2017-12-24T00:48:59.879Z,93.52
2017-12-24T00:51:25.626Z,93.68
2017-12-24T00:53:51.380Z,94.00
2017-12-24T00:56:17.595Z,93.92
2017-12-24T00:58:43.377Z,94.02
2017-12-24T01:01:09.190Z,94.32
2017-12-24T01:03:35.520Z,94.27
2017-12-24T01:06:01.271Z,94.42
2017-12-24T01:08:27.008Z,94.25
2017-12-24T01:10:53.996Z,94.46
2017-12-24T01:13:19.740Z,94.48
2017-12-24T01:15:46.007Z,94.46
2017-12-24T01:18:11.783Z,94.65
2017-12-24T01:20:37.634Z,94.93
2017-12-24T01:23:03.381Z,94.83
2017-12-24T01:25:29.378Z,94.94
2017-12-24T01:27:55.152Z,95.13
2017-12-24T01:30:21.225Z,95.10
2017-12-24T01:32:47.451Z,95.35
2017-12-24T01:35:13.284Z,95.55
2017-12-24T01:37:39.187Z,95.71
2017-12-24T01:40:04.974Z,95.83
2017-12-24T01:42:30.739Z,96.19
2017-12-24T01:44:57.947Z,96.33
2017-12-24T01:47:23.838Z,96.37
2017-12-24T01:49:49.707Z,96.45
2017-12-24T01:52:15.468Z,96.40
2017-12-24T01:54:41.210Z,96.43
2017-12-24T01:57:06.983Z,96.52
2017-12-24T01:59:32.753Z,96.43
2017-12-24T02:01:58.522Z,96.44
2017-12-24T02:04:24.280Z,96.42
2017-12-24T02:06:50.051Z,96.60
2017-12-24T02:09:15.817Z,96.69
2017-12-24T02:11:41.583Z,96.75
2017-12-24T02:14:07.338Z,96.58
2017-12-24T02:16:33.096Z,96.54
2017-12-24T02:18:58.867Z,96.70
2017-12-24T02:21:24.636Z,96.69
2017-12-24T02:23:50.388Z,96.88
2017-12-24T02:26:16.148Z,96.89
2017-12-24T02:28:41.904Z,96.76
2017-12-24T02:31:07.655Z,96.74
2017-12-24T02:33:33.395Z,96.88
2017-12-24T02:35:59.152Z,97.01
2017-12-24T02:38:24.909Z,96.99
2017-12-24T02:40:50.672Z,97.04
2017-12-24T02:43:16.444Z,96.97
2017-12-24T02:45:42.192Z,97.02
2017-12-24T02:48:07.946Z,97.01
2017-12-24T02:50:33.705Z,96.94
2017-12-24T02:52:59.480Z,96.90
2017-12-24T02:55:25.242Z,96.85
2017-12-24T02:57:51.015Z,96.93
2017-12-24T03:00:16.774Z,97.06
2017-12-24T03:02:42.549Z,97.11
2017-12-24T03:05:08.322Z,96.98
2017-12-24T03:07:34.091Z,96.99
2017-12-24T03:09:59.840Z,96.94
2017-12-24T03:12:25.595Z,96.94
2017-12-24T03:14:51.353Z,96.98
2017-12-24T03:17:17.106Z,97.12
2017-12-24T03:19:42.867Z,97.09
2017-12-24T03:22:08.624Z,97.13
2017-12-24T03:24:34.385Z,97.14
2017-12-24T03:27:00.155Z,97.15
2017-12-24T03:29:25.920Z,97.17
2017-12-24T03:31:51.660Z,97.37
2017-12-24T03:34:17.419Z,97.49
2017-12-24T03:36:43.171Z,97.54
2017-12-24T03:39:08.940Z,97.60
2017-12-24T03:41:34.699Z,97.61
2017-12-24T03:44:00.483Z,97.51
2017-12-24T03:46:26.224Z,97.50
2017-12-24T03:48:52.015Z,97.43
2017-12-24T03:51:17.763Z,97.54
2017-12-24T03:53:43.528Z,97.52
2017-12-24T03:56:09.295Z,97.47
2017-12-24T03:58:35.062Z,97.38
2017-12-24T04:01:00.811Z,97.36
2017-12-24T04:03:26.572Z,97.36
2017-12-24T04:05:52.332Z,97.36
2017-12-24T04:08:18.083Z,97.41
2017-12-24T04:10:43.841Z,97.38
2017-12-24T04:13:09.603Z,97.41
2017-12-24T04:15:35.371Z,97.36
2017-12-24T04:18:01.136Z,97.46
2017-12-24T04:20:26.890Z,97.40
2017-12-24T04:22:52.647Z,97.41
2017-12-24T04:25:18.411Z,97.42
2017-12-24T04:27:44.179Z,97.43
2017-12-24T04:30:09.951Z,97.43
2017-12-24T04:32:35.698Z,97.42
2017-12-24T04:35:01.456Z,97.31
2017-12-24T04:37:27.216Z,97.41
2017-12-24T04:39:52.988Z,97.49
2017-12-24T04:42:18.751Z,97.54
2017-12-24T04:44:44.523Z,97.47
2017-12-24T04:47:10.284Z,97.47
2017-12-24T04:49:36.050Z,97.43
2017-12-24T04:52:01.815Z,97.45
2017-12-24T04:54:27.575Z,97.58
2017-12-24T04:56:53.334Z,97.54
2017-12-24T04:59:19.078Z,97.41
2017-12-24T05:01:44.827Z,97.42
2017-12-24T05:04:10.554Z,97.45
2017-12-24T05:06:36.314Z,97.49
2017-12-24T05:09:02.066Z,97.48
2017-12-24T05:11:27.822Z,97.51
2017-12-24T05:13:53.550Z,97.49
2017-12-24T05:16:19.297Z,97.44
2017-12-24T05:18:45.067Z,97.44
2017-12-24T05:21:10.828Z,97.45
2017-12-24T05:23:36.578Z,97.50
2017-12-24T05:26:02.340Z,97.37
2017-12-24T05:28:28.096Z,97.45
2017-12-24T05:30:53.835Z,97.50
2017-12-24T05:33:19.588Z,97.48
2017-12-24T05:35:45.336Z,97.45
2017-12-24T05:38:11.090Z,97.55
2017-12-24T05:40:36.838Z,97.54
2017-12-24T05:43:02.613Z,97.49
2017-12-24T05:45:28.363Z,97.57
2017-12-24T05:47:54.111Z,97.57
2017-12-24T05:50:19.846Z,97.62
2017-12-24T05:52:45.623Z,97.53
2017-12-24T05:55:11.367Z,97.51
2017-12-24T05:57:37.118Z,97.49
2017-12-24T06:00:03.981Z,97.42
2017-12-24T06:02:29.747Z,97.30
2017-12-24T06:04:55.483Z,97.39
2017-12-24T06:07:21.238Z,97.38
2017-12-24T06:09:46.991Z,97.37
2017-12-24T06:12:12.731Z,97.26
2017-12-24T06:14:38.479Z,97.20
2017-12-24T06:17:04.233Z,97.27
2017-12-24T06:19:29.987Z,97.32
2017-12-24T06:21:55.739Z,97.42
2017-12-24T06:24:21.487Z,97.43
2017-12-24T06:26:47.223Z,97.31
2017-12-24T06:29:12.967Z,97.36
2017-12-24T06:31:38.714Z,97.33
2017-12-24T06:34:04.471Z,97.37
2017-12-24T06:36:30.228Z,97.34
2017-12-24T06:38:55.972Z,97.25
2017-12-24T06:41:21.723Z,97.38
2017-12-24T06:43:47.484Z,97.34
2017-12-24T06:46:13.226Z,97.32
2017-12-24T06:48:38.986Z,97.34
2017-12-24T06:51:04.734Z,97.29
2017-12-24T06:53:30.487Z,97.26
2017-12-24T06:55:56.220Z,97.34
2017-12-24T06:58:21.974Z,97.39
2017-12-24T07:00:47.744Z,97.43
2017-12-24T07:03:13.503Z,97.41
2017-12-24T07:05:39.255Z,97.39
2017-12-24T07:08:05.012Z,97.32
2017-12-24T07:10:30.759Z,97.39
2017-12-24T07:12:56.509Z,97.35
2017-12-24T07:15:22.249Z,97.32
2017-12-24T07:17:48.003Z,97.32
2017-12-24T07:20:13.762Z,97.20
2017-12-24T07:22:39.523Z,97.17
2017-12-24T07:25:05.282Z,97.21
2017-12-24T07:27:31.033Z,97.27
2017-12-24T07:29:56.778Z,97.17
2017-12-24T07:32:22.524Z,97.18
2017-12-24T07:34:48.278Z,97.29
2017-12-24T07:37:14.036Z,97.27
2017-12-24T07:39:39.787Z,97.32
2017-12-24T07:42:05.560Z,97.39
2017-12-24T07:44:31.324Z,97.39
2017-12-24T07:46:57.084Z,97.20
2017-12-24T07:49:22.830Z,97.23
2017-12-24T07:51:48.594Z,97.17
2017-12-24T07:54:14.342Z,97.23
2017-12-24T07:56:40.099Z,97.32
2017-12-24T07:59:05.856Z,97.35
2017-12-24T08:01:31.611Z,97.28
2017-12-24T08:03:57.351Z,97.28
2017-12-24T08:06:23.111Z,97.26
2017-12-24T08:08:48.867Z,97.20
2017-12-24T08:11:14.636Z,97.42
2017-12-24T08:13:40.397Z,97.42
2017-12-24T08:16:06.163Z,97.39
2017-12-24T08:18:31.920Z,97.48
2017-12-24T08:20:57.683Z,97.51
2017-12-24T08:23:23.455Z,97.34
2017-12-24T08:25:49.213Z,97.45
2017-12-24T08:28:14.993Z,97.45
2017-12-24T08:30:40.750Z,97.50
2017-12-24T08:33:06.526Z,97.55
2017-12-24T08:35:32.283Z,97.46
2017-12-24T08:37:58.062Z,97.52
2017-12-24T08:40:23.807Z,97.44
2017-12-24T08:42:49.558Z,97.49
2017-12-24T08:45:15.300Z,97.60
2017-12-24T08:47:41.052Z,97.48
2017-12-24T08:50:06.787Z,97.54
2017-12-24T08:52:32.571Z,97.55
2017-12-24T08:54:58.357Z,97.53
2017-12-24T08:57:24.068Z,97.52
2017-12-24T08:59:49.820Z,97.46
2017-12-24T09:02:15.562Z,97.43
2017-12-24T09:04:41.323Z,97.34
2017-12-24T09:07:07.107Z,97.39
2017-12-24T09:09:32.858Z,97.33
2017-12-24T09:11:58.604Z,97.20
2017-12-24T09:14:24.364Z,97.19
2017-12-24T09:16:50.135Z,97.32
2017-12-24T09:19:15.897Z,97.07
2017-12-24T09:21:41.650Z,97.17
2017-12-24T09:24:07.399Z,97.33
2017-12-24T09:26:33.156Z,97.34
2017-12-24T09:28:58.919Z,97.33
2017-12-24T09:31:24.683Z,97.28
2017-12-24T09:33:50.431Z,97.24
2017-12-24T09:36:16.180Z,97.25
2017-12-24T09:38:41.923Z,97.31
2017-12-24T09:41:07.682Z,97.28
2017-12-24T09:43:33.451Z,97.22
2017-12-24T09:45:59.211Z,97.32
2017-12-24T09:48:24.976Z,97.15
2017-12-24T09:50:50.731Z,97.18
2017-12-24T09:53:16.486Z,97.32
2017-12-24T09:55:42.259Z,97.23
2017-12-24T09:58:08.006Z,97.36
2017-12-24T10:00:33.790Z,97.33
2017-12-24T10:02:59.545Z,97.22
2017-12-24T10:05:25.299Z,97.22
2017-12-24T10:07:51.067Z,97.23
2017-12-24T10:10:16.835Z,97.23
2017-12-24T10:12:42.586Z,97.13
2017-12-24T10:15:08.326Z,97.06
2017-12-24T10:17:34.226Z,97.02
2017-12-24T10:19:59.982Z,97.14
2017-12-24T10:22:25.736Z,97.26
2017-12-24T10:24:51.464Z,97.12
2017-12-24T10:27:17.207Z,97.11
2017-12-24T10:29:42.942Z,97.10
2017-12-24T10:32:08.695Z,97.11
2017-12-24T10:34:34.439Z,97.05
2017-12-24T10:37:00.206Z,97.05
2017-12-24T10:39:25.961Z,97.09
2017-12-24T10:41:51.722Z,97.12
2017-12-24T10:44:17.498Z,97.04
2017-12-24T10:46:43.247Z,97.01
2017-12-24T10:49:08.998Z,96.95
2017-12-24T10:51:34.800Z,96.85
2017-12-24T10:54:00.688Z,96.66
2017-12-24T10:56:26.430Z,96.69
2017-12-24T10:58:52.183Z,96.79
2017-12-24T11:01:17.931Z,96.68
2017-12-24T11:03:43.682Z,96.53
2017-12-24T11:06:09.410Z,96.36
2017-12-24T11:08:35.158Z,96.37
2017-12-24T11:11:02.037Z,96.53
2017-12-24T11:13:27.845Z,96.70
2017-12-24T11:15:53.590Z,96.34
2017-12-24T11:18:19.346Z,96.65
2017-12-24T11:20:45.091Z,96.48
2017-12-24T11:23:10.843Z,96.56
2017-12-24T11:25:36.592Z,96.41
2017-12-24T11:28:02.370Z,96.67
2017-12-24T11:30:28.123Z,96.53
2017-12-24T11:32:53.880Z,96.39
2017-12-24T11:35:19.639Z,96.61
2017-12-24T11:37:45.397Z,96.34
2017-12-24T11:40:11.143Z,96.55
2017-12-24T11:42:36.899Z,96.61
2017-12-24T11:45:02.651Z,96.58
2017-12-24T11:47:28.462Z,96.61
2017-12-24T11:49:54.220Z,96.36
2017-12-24T11:52:19.963Z,96.50
2017-12-24T11:54:45.726Z,96.43
2017-12-24T11:57:11.462Z,96.57
2017-12-24T11:59:37.225Z,96.52
2017-12-24T12:02:02.976Z,96.47
2017-12-24T12:04:29.697Z,96.38
2017-12-24T12:06:55.438Z,96.65
2017-12-24T12:09:21.199Z,96.62
2017-12-24T12:11:46.947Z,96.65
2017-12-24T12:14:12.702Z,96.49
2017-12-24T12:16:38.442Z,96.48
2017-12-24T12:19:04.199Z,96.48
2017-12-24T12:21:29.963Z,96.56
2017-12-24T12:23:55.710Z,96.61
2017-12-24T12:26:21.468Z,96.62
2017-12-24T12:28:47.228Z,96.62
2017-12-24T12:31:12.996Z,96.51
2017-12-24T12:33:39.729Z,96.59
2017-12-24T12:36:05.799Z,96.54
2017-12-24T12:38:31.687Z,96.61
2017-12-24T12:40:57.442Z,96.21
2017-12-24T12:43:23.512Z,96.36
2017-12-24T12:45:49.278Z,96.39
2017-12-24T12:48:15.027Z,96.38
2017-12-24T12:50:40.963Z,96.42
2017-12-24T12:53:06.720Z,96.46
2017-12-24T12:55:32.495Z,96.68
2017-12-24T12:57:58.240Z,96.84
2017-12-24T13:00:23.986Z,96.80
2017-12-24T13:02:49.741Z,96.89
2017-12-24T13:05:15.514Z,97.04
2017-12-24T13:07:41.273Z,96.89
2017-12-24T13:10:07.020Z,96.88
2017-12-24T13:12:32.774Z,96.89
2017-12-24T13:14:58.523Z,96.82
2017-12-24T13:17:24.322Z,96.93
2017-12-24T13:19:50.202Z,96.82
2017-12-24T13:22:15.952Z,96.71
2017-12-24T13:24:41.690Z,96.71
2017-12-24T13:27:07.459Z,96.76
2017-12-24T13:29:34.189Z,96.77
2017-12-24T13:31:59.960Z,96.65
2017-12-24T13:34:25.711Z,96.86
2017-12-24T13:36:51.464Z,96.84
2017-12-24T13:39:17.204Z,96.86
2017-12-24T13:41:42.972Z,96.87
2017-12-24T13:44:08.727Z,96.88
2017-12-24T13:46:34.478Z,96.81
2017-12-24T13:49:00.224Z,96.73
2017-12-24T13:51:25.979Z,96.66
2017-12-24T13:53:51.734Z,96.66
2017-12-24T13:56:17.481Z,96.43
2017-12-24T13:58:43.243Z,96.60
2017-12-24T14:01:09.003Z,96.47
2017-12-24T14:03:34.762Z,96.26
2017-12-24T14:06:00.515Z,96.21
2017-12-24T14:08:26.284Z,96.32
2017-12-24T14:10:52.045Z,96.15
2017-12-24T14:13:17.807Z,96.20
2017-12-24T14:15:43.562Z,96.15
2017-12-24T14:18:09.322Z,96.13
2017-12-24T14:20:35.070Z,96.07
2017-12-24T14:23:00.847Z,95.93
2017-12-24T14:25:26.595Z,95.68
2017-12-24T14:27:52.343Z,95.70
2017-12-24T14:30:18.112Z,95.58
2017-12-24T14:32:43.875Z,95.51
2017-12-24T14:35:10.558Z,95.26
2017-12-24T14:37:36.355Z,95.06
2017-12-24T14:40:03.353Z,94.85
2017-12-24T14:42:30.829Z,95.25
2017-12-24T14:44:57.332Z,94.94
2017-12-24T14:47:24.145Z,95.26
2017-12-24T14:49:51.294Z,94.84
2017-12-24T14:52:17.951Z,94.58
2017-12-24T14:54:44.711Z,94.28
2017-12-24T14:57:11.051Z,94.43
2017-12-24T14:59:38.376Z,94.21
2017-12-24T15:02:04.114Z,94.20
2017-12-24T15:04:31.325Z,94.17
2017-12-24T15:06:57.579Z,93.48
2017-12-24T15:09:24.458Z,93.98
2017-12-24T15:11:50.212Z,94.13
2017-12-24T15:14:15.971Z,94.16
2017-12-24T15:16:42.696Z,94.07
2017-12-24T15:19:09.571Z,93.48
2017-12-24T15:21:35.323Z,93.91
2017-12-24T15:24:01.066Z,93.30
2017-12-24T15:26:28.006Z,93.30
2017-12-24T15:28:54.771Z,93.33
2017-12-24T15:31:21.680Z,93.37
2017-12-24T15:33:48.276Z,93.72
2017-12-24T15:36:15.074Z,93.42
2017-12-24T15:38:42.453Z,93.02
2017-12-24T15:41:09.836Z,92.95
2017-12-24T15:43:35.635Z,92.65
2017-12-24T15:46:02.574Z,92.76
2017-12-24T15:48:29.581Z,92.32
2017-12-24T15:50:56.617Z,92.87
2017-12-24T15:53:24.121Z,91.84
2017-12-24T15:55:51.627Z,91.76
2017-12-24T15:58:17.372Z,92.04
2017-12-24T16:00:43.138Z,91.69
2017-12-24T16:03:08.896Z,92.62
2017-12-24T16:05:34.675Z,91.83
2017-12-24T16:08:00.435Z,91.46
2017-12-24T16:10:26.183Z,92.08
2017-12-24T16:12:51.943Z,91.51
2017-12-24T16:15:17.699Z,91.17
2017-12-24T16:17:43.457Z,91.67
2017-12-24T16:20:09.198Z,90.69
2017-12-24T16:22:34.957Z,91.06
2017-12-24T16:25:00.719Z,91.00
2017-12-24T16:27:26.471Z,90.31
2017-12-24T16:29:52.226Z,91.16
2017-12-24T16:32:17.971Z,90.65
2017-12-24T16:34:43.727Z,90.74
2017-12-24T16:37:09.483Z,90.63
2017-12-24T16:39:35.240Z,90.35
2017-12-24T16:42:01.011Z,90.83
2017-12-24T16:44:26.760Z,90.78
2017-12-24T16:46:52.510Z,91.18
2017-12-24T16:49:18.263Z,91.12
2017-12-24T16:51:44.023Z,90.88
2017-12-24T16:54:09.751Z,89.81
2017-12-24T16:56:35.491Z,90.63
2017-12-24T16:59:01.255Z,90.47
2017-12-24T17:01:26.999Z,89.76
2017-12-24T17:03:52.759Z,90.42
2017-12-24T17:06:18.490Z,90.99
2017-12-24T17:08:44.243Z,90.49
2017-12-24T17:11:09.975Z,90.29
2017-12-24T17:13:36.506Z,90.03
2017-12-24T17:16:02.281Z,90.01
2017-12-24T17:18:28.051Z,90.08
2017-12-24T17:20:53.800Z,90.06
2017-12-24T17:23:19.550Z,90.45
2017-12-24T17:25:45.291Z,90.12
2017-12-24T17:28:11.046Z,90.28
2017-12-24T17:30:36.796Z,90.39
2017-12-24T17:33:02.563Z,90.83
2017-12-24T17:35:35.158Z,90.56
2017-12-24T17:38:00.919Z,90.70
2017-12-24T17:40:26.671Z,90.28
2017-12-24T17:42:52.426Z,90.52
2017-12-24T17:45:18.180Z,90.07
2017-12-24T17:47:43.932Z,90.60
2017-12-24T17:50:09.683Z,90.09
2017-12-24T17:52:35.414Z,90.07
2017-12-24T17:55:01.178Z,89.86
2017-12-24T17:57:26.931Z,90.90
2017-12-24T17:59:52.683Z,90.09
2017-12-24T18:02:18.424Z,89.72
2017-12-24T18:04:44.191Z,89.59
2017-12-24T18:07:09.941Z,90.11
2017-12-24T18:09:35.746Z,89.39
2017-12-24T18:12:01.479Z,89.52
2017-12-24T18:14:27.227Z,89.76
2017-12-24T18:16:52.968Z,89.85
2017-12-24T18:19:18.711Z,90.04
2017-12-24T18:21:44.459Z,89.17
2017-12-24T18:24:10.254Z,89.64
2017-12-24T18:26:35.990Z,90.00
2017-12-24T18:29:01.753Z,90.10
2017-12-24T18:31:27.502Z,90.65
2017-12-24T18:33:53.255Z,91.14
2017-12-24T18:36:18.999Z,91.36
2017-12-24T18:38:44.749Z,91.08
2017-12-24T18:41:10.514Z,89.95
2017-12-24T18:43:36.275Z,89.36
2017-12-24T18:46:02.035Z,89.97
2017-12-24T18:48:27.787Z,89.92
2017-12-24T18:50:53.540Z,89.21
2017-12-24T18:53:19.281Z,89.12
2017-12-24T18:55:45.052Z,88.64
2017-12-24T18:58:10.863Z,88.94
2017-12-24T19:00:36.583Z,88.45
2017-12-24T19:03:02.331Z,89.01
2017-12-24T19:05:28.075Z,88.67
2017-12-24T19:07:53.824Z,89.50
2017-12-24T19:10:19.575Z,88.82
2017-12-24T19:12:45.313Z,88.76
2017-12-24T19:15:11.079Z,87.98
2017-12-24T19:17:36.837Z,88.76
2017-12-24T19:20:02.583Z,88.45
2017-12-24T19:22:28.351Z,88.66
2017-12-24T19:24:54.099Z,88.17
2017-12-24T19:27:19.863Z,88.00
2017-12-24T19:29:45.611Z,88.31
2017-12-24T19:32:11.372Z,88.36
2017-12-24T19:34:37.134Z,88.75
2017-12-24T19:37:02.904Z,88.39
2017-12-24T19:39:28.659Z,88.75
2017-12-24T19:41:54.430Z,88.89
2017-12-24T19:44:20.189Z,88.49
2017-12-24T19:46:45.957Z,88.60
2017-12-24T19:49:11.700Z,88.80
2017-12-24T19:51:37.455Z,87.97
2017-12-24T19:54:03.224Z,88.77
2017-12-24T19:56:29.423Z,88.44
2017-12-24T19:58:56.867Z,88.08
2017-12-24T20:01:22.619Z,88.07
2017-12-24T20:03:48.370Z,88.26
2017-12-24T20:06:14.108Z,88.17
2017-12-24T20:08:39.879Z,88.10
2017-12-24T20:11:05.630Z,87.56
2017-12-24T20:13:31.386Z,87.42
2017-12-24T20:15:57.130Z,87.61
2017-12-24T20:18:22.894Z,88.07
2017-12-24T20:20:48.653Z,87.67
2017-12-24T20:23:14.428Z,87.67
2017-12-24T20:25:40.200Z,87.55
2017-12-24T20:28:05.951Z,87.44
2017-12-24T20:30:31.719Z,88.34
2017-12-24T20:32:57.463Z,88.02
2017-12-24T20:35:23.226Z,87.57
2017-12-24T20:37:48.971Z,87.46
2017-12-24T20:40:14.742Z,87.88
2017-12-24T20:42:40.517Z,88.12
2017-12-24T20:45:06.283Z,88.00
2017-12-24T20:47:32.032Z,88.49
2017-12-24T20:49:57.794Z,88.11
2017-12-24T20:52:23.571Z,87.71
2017-12-24T20:54:49.338Z,87.96
2017-12-24T20:57:15.093Z,88.05
2017-12-24T20:59:40.840Z,87.53
2017-12-24T21:02:06.578Z,87.83
2017-12-24T21:04:32.323Z,88.59
2017-12-24T21:06:58.082Z,88.63
2017-12-24T21:09:23.832Z,88.63
2017-12-24T21:11:49.596Z,88.74
2017-12-24T21:14:15.347Z,88.56
2017-12-24T21:16:41.100Z,88.72
2017-12-24T21:19:06.845Z,88.48
2017-12-24T21:21:32.608Z,88.47
2017-12-24T21:23:58.375Z,88.77
2017-12-24T21:26:24.156Z,88.59
2017-12-24T21:28:49.912Z,88.21
2017-12-24T21:31:15.667Z,88.90
2017-12-24T21:33:41.394Z,89.33
2017-12-24T21:36:07.150Z,90.04
2017-12-24T21:38:32.894Z,90.03
2017-12-24T21:40:58.659Z,90.65
2017-12-24T21:43:24.418Z,90.57
2017-12-24T21:45:50.168Z,90.58
2017-12-24T21:48:15.929Z,90.26
2017-12-24T21:50:41.679Z,90.28
2017-12-24T21:53:07.434Z,89.60
2017-12-24T21:55:33.171Z,89.47
2017-12-24T21:57:58.926Z,89.51
2017-12-24T22:00:24.674Z,89.61
2017-12-24T22:02:50.423Z,89.93
2017-12-24T22:05:16.166Z,89.71
2017-12-24T22:07:41.925Z,89.71
2017-12-24T22:10:07.672Z,90.16
2017-12-24T22:12:33.443Z,89.94
2017-12-24T22:14:59.186Z,89.88
2017-12-24T22:17:24.992Z,89.55
2017-12-24T22:19:50.726Z,89.02
2017-12-24T22:22:16.506Z,89.03
2017-12-24T22:24:42.251Z,89.01
2017-12-24T22:27:08.019Z,89.23
2017-12-24T22:29:33.810Z,89.23
2017-12-24T22:31:59.571Z,89.37
2017-12-24T22:34:25.323Z,89.73
2017-12-24T22:36:51.063Z,89.27
2017-12-24T22:39:16.820Z,89.19
2017-12-24T22:41:42.723Z,89.09
2017-12-24T22:44:08.478Z,89.14
2017-12-24T22:46:34.232Z,89.25
2017-12-24T22:49:00.023Z,89.28
2017-12-24T22:51:25.770Z,88.97
2017-12-24T22:53:51.573Z,88.94
2017-12-24T22:56:17.352Z,88.44
2017-12-24T22:58:43.123Z,88.06
2017-12-24T23:01:08.895Z,88.73
2017-12-24T23:03:34.642Z,88.50
2017-12-24T23:06:00.428Z,88.40
2017-12-24T23:08:26.203Z,88.18
2017-12-24T23:10:51.959Z,88.34
2017-12-24T23:13:17.686Z,88.19
2017-12-24T23:15:43.472Z,88.01
2017-12-24T23:18:09.246Z,88.32
2017-12-24T23:20:35.043Z,88.39
2017-12-24T23:23:00.774Z,88.51
2017-12-24T23:25:26.598Z,88.06
2017-12-24T23:27:52.287Z,88.40
2017-12-24T23:30:18.088Z,88.79
2017-12-24T23:32:43.879Z,88.65
2017-12-24T23:35:09.706Z,88.65
2017-12-24T23:37:35.495Z,88.77
2017-12-24T23:40:01.332Z,88.91
2017-12-24T23:42:27.135Z,89.61
2017-12-24T23:44:52.927Z,89.60
2017-12-24T23:47:18.687Z,89.70
2017-12-24T23:49:44.426Z,89.80
2017-12-24T23:52:10.170Z,90.23
2017-12-24T23:54:35.909Z,89.99
2017-12-24T23:57:01.735Z,90.35
2017-12-24T23:59:27.503Z,90.38
